createdAt,value
2023-05-14T00:01:15.177Z,55.02
2023-05-14T00:03:41.728Z,54.36
2023-05-14T00:06:09.483Z,54.74
2023-05-14T00:08:35.998Z,54.71
2023-05-14T00:11:02.628Z,54.58
2023-05-14T00:13:29.246Z,54.60
2023-05-14T00:15:55.751Z,54.88
2023-05-14T00:18:22.222Z,55.80
2023-05-14T00:20:49.299Z,54.99
2023-05-14T00:23:15.777Z,54.66
2023-05-14T00:25:42.240Z,56.04
2023-05-14T00:28:08.737Z,54.78
2023-05-14T00:30:35.287Z,54.82
2023-05-14T00:33:01.867Z,54.09
2023-05-14T00:35:28.428Z,55.09
2023-05-14T00:37:55.082Z,54.30
2023-05-14T00:40:26.352Z,54.47
2023-05-14T00:42:53.310Z,55.03
2023-05-14T00:45:19.891Z,56.11
2023-05-14T00:47:46.520Z,56.70
2023-05-14T00:50:13.787Z,56.96
2023-05-14T00:52:40.670Z,57.36
2023-05-14T00:55:07.889Z,57.43
2023-05-14T00:57:36.024Z,57.82
2023-05-14T01:00:03.687Z,57.89
2023-05-14T01:02:30.221Z,57.89
2023-05-14T01:04:57.016Z,58.39
2023-05-14T01:07:54.440Z,58.22
2023-05-14T01:10:39.206Z,58.04
2023-05-14T01:13:12.786Z,57.81
2023-05-14T01:15:40.109Z,57.43
2023-05-14T01:18:09.911Z,57.64
2023-05-14T01:20:36.602Z,57.87
2023-05-14T01:23:03.500Z,58.35
2023-05-14T01:25:31.332Z,59.28
2023-05-14T01:28:02.788Z,59.37
2023-05-14T01:30:36.131Z,59.80
2023-05-14T01:33:12.121Z,59.65
2023-05-14T01:35:39.385Z,59.70
2023-05-14T01:38:08.002Z,59.58
2023-05-14T01:40:36.504Z,60.09
2023-05-14T01:43:04.549Z,60.14
2023-05-14T01:45:31.373Z,60.30
2023-05-14T01:47:58.042Z,60.43
2023-05-14T01:50:24.787Z,61.56
2023-05-14T01:52:53.428Z,61.31
2023-05-14T01:55:20.026Z,60.87
2023-05-14T01:57:46.458Z,61.03
2023-05-14T02:00:13.209Z,61.65
2023-05-14T02:02:39.739Z,62.04
2023-05-14T02:05:07.144Z,63.71
2023-05-14T02:07:33.715Z,63.37
2023-05-14T02:10:00.231Z,62.99
2023-05-14T02:12:26.837Z,63.19
2023-05-14T02:14:53.402Z,64.36
2023-05-14T02:17:19.907Z,65.25
2023-05-14T02:19:46.411Z,64.77
2023-05-14T02:22:13.321Z,64.28
2023-05-14T02:24:39.781Z,64.45
2023-05-14T02:27:06.353Z,64.55
2023-05-14T02:29:32.836Z,65.04
2023-05-14T02:31:59.321Z,65.18
2023-05-14T02:34:25.932Z,65.18
2023-05-14T02:36:52.445Z,65.74
2023-05-14T02:39:18.886Z,65.76
2023-05-14T02:41:45.425Z,66.57
2023-05-14T02:44:11.874Z,67.52
2023-05-14T02:46:38.409Z,67.20
2023-05-14T02:49:05.029Z,67.21
2023-05-14T02:51:31.575Z,67.69
2023-05-14T02:53:58.041Z,68.94
2023-05-14T02:56:24.742Z,68.96
2023-05-14T02:58:51.310Z,69.23
2023-05-14T03:01:18.841Z,69.73
2023-05-14T03:03:45.940Z,69.57
2023-05-14T03:06:12.730Z,69.57
2023-05-14T03:08:39.391Z,69.39
2023-05-14T03:11:06.884Z,69.75
2023-05-14T03:13:33.483Z,69.20
2023-05-14T03:16:00.006Z,69.11
2023-05-14T03:18:28.336Z,69.68
2023-05-14T03:20:54.966Z,70.13
2023-05-14T03:23:21.578Z,69.51
2023-05-14T03:25:48.139Z,69.54
2023-05-14T03:28:14.678Z,69.32
2023-05-14T03:30:41.329Z,69.13
2023-05-14T03:33:07.889Z,68.63
2023-05-14T03:35:34.456Z,68.16
2023-05-14T03:38:00.976Z,67.61
2023-05-14T03:40:27.485Z,67.85
2023-05-14T03:42:54.051Z,67.89
2023-05-14T03:45:20.898Z,67.73
2023-05-14T03:47:47.546Z,68.09
2023-05-14T03:50:14.152Z,68.08
2023-05-14T03:52:40.891Z,67.15
2023-05-14T03:55:07.643Z,67.63
2023-05-14T03:57:34.252Z,67.30
2023-05-14T04:00:00.790Z,67.69
2023-05-14T04:02:27.340Z,68.58
2023-05-14T04:04:53.887Z,68.90
2023-05-14T04:07:20.555Z,69.38
2023-05-14T04:09:47.022Z,69.71
2023-05-14T04:12:13.558Z,69.25
2023-05-14T04:14:40.196Z,68.74
2023-05-14T04:17:06.653Z,68.62
2023-05-14T04:19:33.179Z,68.05
2023-05-14T04:21:59.650Z,67.26
2023-05-14T04:24:26.141Z,66.90
2023-05-14T04:26:52.650Z,66.38
2023-05-14T04:29:19.155Z,66.53
2023-05-14T04:31:46.328Z,65.46
2023-05-14T04:34:12.914Z,64.69
2023-05-14T04:36:40.109Z,63.99
2023-05-14T04:39:06.668Z,63.87
2023-05-14T04:41:33.399Z,64.06
2023-05-14T04:44:01.950Z,63.84
2023-05-14T04:46:28.647Z,63.28
2023-05-14T04:48:56.418Z,62.98
2023-05-14T04:51:23.269Z,62.34
2023-05-14T04:53:49.765Z,61.46
2023-05-14T04:56:16.194Z,61.13
2023-05-14T04:58:42.677Z,61.24
2023-05-14T05:01:09.262Z,61.59
2023-05-14T05:03:35.827Z,61.66
2023-05-14T05:06:02.301Z,61.52
2023-05-14T05:08:29.267Z,60.64
2023-05-14T05:10:55.763Z,60.00
2023-05-14T05:13:22.224Z,60.27
2023-05-14T05:15:48.744Z,59.86
2023-05-14T05:18:15.295Z,58.81
2023-05-14T05:20:41.799Z,59.34
2023-05-14T05:23:08.351Z,58.96
2023-05-14T05:25:34.865Z,58.07
2023-05-14T05:28:01.374Z,57.51
2023-05-14T05:30:28.211Z,57.46
2023-05-14T05:32:57.019Z,57.29
2023-05-14T05:35:23.597Z,56.84
2023-05-14T05:37:50.173Z,55.45
2023-05-14T05:40:16.982Z,53.89
2023-05-14T05:42:43.580Z,52.57
2023-05-14T05:45:10.603Z,51.63
2023-05-14T05:47:37.176Z,49.86
2023-05-14T05:50:03.985Z,46.22
2023-05-14T05:52:30.641Z,43.85
2023-05-14T05:54:57.081Z,41.58
2023-05-14T05:57:25.654Z,40.58
2023-05-14T05:59:53.195Z,38.60
2023-05-14T06:02:19.893Z,36.10
2023-05-14T06:04:46.788Z,35.92
2023-05-14T06:07:13.451Z,34.31
2023-05-14T06:09:39.959Z,32.93
2023-05-14T06:12:06.733Z,32.91
2023-05-14T06:14:33.414Z,31.08
2023-05-14T06:17:00.192Z,29.66
2023-05-14T06:19:26.808Z,29.47
2023-05-14T06:21:53.468Z,29.16
2023-05-14T06:24:20.347Z,27.22
2023-05-14T06:26:48.770Z,27.60
2023-05-14T06:29:15.312Z,26.41
2023-05-14T06:31:42.237Z,26.56
2023-05-14T06:34:09.202Z,24.76
2023-05-14T06:36:35.861Z,24.29
2023-05-14T06:39:03.424Z,24.82
2023-05-14T06:41:29.882Z,24.13
2023-05-14T06:43:56.499Z,26.64
2023-05-14T06:46:23.238Z,25.52
2023-05-14T06:48:49.747Z,26.30
2023-05-14T06:51:16.291Z,27.23
2023-05-14T06:53:42.795Z,26.70
2023-05-14T06:56:09.315Z,25.77
2023-05-14T06:58:35.956Z,24.09
2023-05-14T07:01:02.541Z,24.56
2023-05-14T07:03:29.255Z,22.96
2023-05-14T07:05:55.881Z,24.44
2023-05-14T07:08:22.356Z,23.26
2023-05-14T07:10:49.100Z,22.53
2023-05-14T07:13:15.694Z,22.77
2023-05-14T07:15:42.214Z,23.89
2023-05-14T07:18:08.765Z,24.56
2023-05-14T07:20:35.421Z,25.52
2023-05-14T07:23:01.868Z,23.11
2023-05-14T07:25:30.637Z,22.30
2023-05-14T07:27:57.313Z,22.24
2023-05-14T07:30:24.254Z,22.99
2023-05-14T07:32:51.327Z,24.51
2023-05-14T07:35:18.023Z,24.68
2023-05-14T07:37:44.638Z,25.84
2023-05-14T07:40:11.313Z,26.21
2023-05-14T07:42:37.889Z,26.31
2023-05-14T07:45:05.463Z,26.89
2023-05-14T07:47:32.318Z,26.70
2023-05-14T07:49:59.033Z,26.97
2023-05-14T07:52:25.609Z,27.92
2023-05-14T07:54:52.510Z,28.94
2023-05-14T07:57:19.793Z,28.08
2023-05-14T07:59:47.550Z,29.27
2023-05-14T08:02:16.081Z,28.00
2023-05-14T08:04:42.908Z,27.27
2023-05-14T08:07:09.390Z,26.44
2023-05-14T08:09:35.923Z,26.33
2023-05-14T08:12:02.700Z,26.37
2023-05-14T08:14:29.244Z,26.87
2023-05-14T08:16:55.869Z,26.56
2023-05-14T08:19:23.093Z,26.35
2023-05-14T08:21:49.606Z,26.36
2023-05-14T08:24:16.126Z,27.77
2023-05-14T08:26:43.867Z,27.50
2023-05-14T08:29:11.530Z,28.23
2023-05-14T08:31:38.899Z,27.80
2023-05-14T08:34:05.614Z,29.36
2023-05-14T08:36:32.816Z,28.79
2023-05-14T08:38:59.356Z,29.45
2023-05-14T08:41:25.986Z,30.13
2023-05-14T08:44:05.528Z,29.09
2023-05-14T08:46:32.580Z,30.20
2023-05-14T08:49:22.970Z,29.61
2023-05-14T08:51:49.776Z,30.45
2023-05-14T08:54:22.518Z,30.53
2023-05-14T08:56:51.953Z,29.38
2023-05-14T08:59:19.204Z,28.64
2023-05-14T09:01:49.628Z,27.79
2023-05-14T09:04:20.060Z,27.30
2023-05-14T09:06:49.339Z,29.14
2023-05-14T09:09:16.349Z,27.99
2023-05-14T09:11:46.750Z,28.35
2023-05-14T09:14:13.276Z,28.39
2023-05-14T09:16:41.780Z,29.48
2023-05-14T09:19:08.898Z,28.78
2023-05-14T09:21:35.853Z,28.22
2023-05-14T09:24:02.542Z,29.11
2023-05-14T09:26:31.872Z,27.61
2023-05-14T09:29:05.048Z,28.96
2023-05-14T09:31:32.810Z,27.79
2023-05-14T09:33:59.888Z,27.69
2023-05-14T09:36:27.246Z,28.05
2023-05-14T09:38:56.937Z,28.35
2023-05-14T09:41:24.381Z,27.81
2023-05-14T09:43:51.642Z,28.60
2023-05-14T09:46:18.327Z,29.11
2023-05-14T09:48:46.062Z,27.96
2023-05-14T09:51:13.429Z,27.74
2023-05-14T09:53:41.318Z,28.52
2023-05-14T09:56:07.853Z,28.25
2023-05-14T09:58:34.316Z,28.49
2023-05-14T10:01:01.801Z,27.13
2023-05-14T10:03:30.203Z,27.54
2023-05-14T10:06:01.234Z,27.55
2023-05-14T10:08:31.084Z,27.51
2023-05-14T10:10:59.128Z,26.79
2023-05-14T10:13:33.735Z,27.01
2023-05-14T10:16:00.210Z,27.02
2023-05-14T10:18:31.184Z,27.05
2023-05-14T10:21:04.116Z,26.62
2023-05-14T10:23:30.959Z,27.35
2023-05-14T10:26:00.605Z,27.33
2023-05-14T10:28:27.808Z,27.72
2023-05-14T10:30:54.818Z,27.76
2023-05-14T10:33:21.476Z,27.29
2023-05-14T10:36:07.649Z,27.14
2023-05-14T10:38:35.832Z,27.72
2023-05-14T10:41:07.444Z,27.69
2023-05-14T10:43:38.460Z,26.39
2023-05-14T10:46:05.754Z,26.25
2023-05-14T10:48:33.027Z,26.65
2023-05-14T10:51:01.037Z,27.25
2023-05-14T10:53:37.850Z,27.68
2023-05-14T10:56:08.918Z,27.62
2023-05-14T10:58:39.981Z,28.36
2023-05-14T11:01:08.238Z,27.69
2023-05-14T11:03:46.172Z,28.46
2023-05-14T11:06:14.399Z,28.70
2023-05-14T11:08:41.490Z,27.82
2023-05-14T11:11:09.340Z,28.03
2023-05-14T11:13:35.974Z,28.09
2023-05-14T11:16:15.031Z,28.11
2023-05-14T11:18:53.606Z,27.54
2023-05-14T11:21:20.445Z,27.45
2023-05-14T11:23:47.017Z,27.87
2023-05-14T11:26:13.705Z,27.69
2023-05-14T11:28:40.590Z,27.04
2023-05-14T11:31:07.228Z,27.62
2023-05-14T11:33:33.937Z,27.09
2023-05-14T11:36:00.610Z,26.67
2023-05-14T11:38:27.103Z,27.18
2023-05-14T11:40:57.460Z,27.34
2023-05-14T11:43:24.815Z,27.04
2023-05-14T11:45:52.647Z,27.06
2023-05-14T11:48:24.001Z,27.05
2023-05-14T11:50:51.946Z,26.68
2023-05-14T11:53:29.194Z,26.40
2023-05-14T11:55:57.792Z,26.00
2023-05-14T11:58:24.685Z,27.09
2023-05-14T12:00:52.747Z,27.00
2023-05-14T12:03:26.777Z,26.91
2023-05-14T12:05:57.543Z,26.62
2023-05-14T12:08:28.849Z,28.00
2023-05-14T12:10:55.919Z,27.30
2023-05-14T12:13:26.714Z,27.07
2023-05-14T12:15:57.608Z,26.52
2023-05-14T12:18:29.284Z,26.26
2023-05-14T12:20:56.613Z,26.45
2023-05-14T12:23:32.608Z,26.77
2023-05-14T12:26:17.315Z,26.37
2023-05-14T12:28:47.805Z,26.03
2023-05-14T12:31:15.668Z,25.95
2023-05-14T12:33:42.300Z,25.70
2023-05-14T12:38:40.871Z,26.91
2023-05-14T12:41:07.414Z,26.61
2023-05-14T12:43:33.902Z,26.32
2023-05-14T12:46:00.515Z,26.93
2023-05-14T12:48:27.043Z,27.32
2023-05-14T12:50:53.624Z,26.67
2023-05-14T12:53:20.179Z,26.36
2023-05-14T12:55:46.699Z,26.70
2023-05-14T12:58:13.256Z,27.38
2023-05-14T13:00:39.809Z,27.21
2023-05-14T13:03:06.517Z,27.38
2023-05-14T13:05:33.345Z,27.31
2023-05-14T13:08:02.213Z,27.63
2023-05-14T13:10:28.752Z,27.46
2023-05-14T13:12:56.417Z,27.58
2023-05-14T13:15:23.712Z,27.21
2023-05-14T13:17:51.171Z,27.08
2023-05-14T13:20:18.418Z,26.87
2023-05-14T13:22:45.298Z,27.89
2023-05-14T13:25:11.753Z,27.41
2023-05-14T13:27:38.313Z,27.17
2023-05-14T13:30:05.293Z,27.84
2023-05-14T13:32:31.806Z,27.45
2023-05-14T13:34:58.463Z,27.13
2023-05-14T13:37:25.710Z,27.31
2023-05-14T13:39:52.269Z,26.66
2023-05-14T13:42:18.874Z,27.26
2023-05-14T13:44:45.538Z,27.09
2023-05-14T13:47:12.083Z,27.01
2023-05-14T13:49:38.736Z,27.26
2023-05-14T13:52:06.013Z,26.98
2023-05-14T13:54:32.647Z,26.76
2023-05-14T13:56:59.314Z,26.73
2023-05-14T13:59:26.075Z,26.73
2023-05-14T14:01:52.751Z,26.22
2023-05-14T14:04:19.953Z,26.43
2023-05-14T14:06:46.556Z,26.68
2023-05-14T14:09:13.815Z,27.11
2023-05-14T14:11:41.056Z,27.93
2023-05-14T14:14:07.654Z,27.89
2023-05-14T14:16:34.474Z,27.75
2023-05-14T14:19:01.058Z,27.89
2023-05-14T14:21:27.628Z,27.02
2023-05-14T14:23:54.306Z,27.04
2023-05-14T14:26:21.311Z,26.58
2023-05-14T14:28:47.942Z,26.75
2023-05-14T14:31:14.697Z,26.81
2023-05-14T14:33:41.839Z,26.88
2023-05-14T14:36:08.769Z,27.51
2023-05-14T14:38:35.356Z,26.87
2023-05-14T14:41:07.059Z,27.17
2023-05-14T14:43:41.137Z,27.26
2023-05-14T14:46:10.749Z,27.27
2023-05-14T14:48:37.752Z,27.51
2023-05-14T14:51:06.004Z,27.53
2023-05-14T14:53:33.082Z,27.75
2023-05-14T14:56:00.640Z,27.76
2023-05-14T14:58:28.025Z,27.71
2023-05-14T15:00:55.968Z,27.32
2023-05-14T15:03:23.640Z,27.38
2023-05-14T15:05:51.691Z,27.56
2023-05-14T15:08:18.418Z,26.61
2023-05-14T15:10:45.746Z,26.59
2023-05-14T15:13:12.774Z,27.19
2023-05-14T15:15:39.458Z,27.42
2023-05-14T15:18:06.090Z,27.46
2023-05-14T15:20:32.660Z,27.83
2023-05-14T15:22:59.194Z,28.22
2023-05-14T15:25:26.690Z,27.89
2023-05-14T15:27:53.365Z,27.87
2023-05-14T15:30:19.966Z,27.35
2023-05-14T15:32:46.821Z,27.50
2023-05-14T15:35:13.399Z,27.41
2023-05-14T15:37:42.247Z,27.60
2023-05-14T15:40:10.292Z,27.47
2023-05-14T15:42:42.408Z,27.74
2023-05-14T15:45:12.613Z,27.69
2023-05-14T15:47:40.041Z,28.28
2023-05-14T15:50:07.540Z,28.68
2023-05-14T15:52:35.013Z,28.33
2023-05-14T15:55:01.874Z,28.61
2023-05-14T15:57:28.339Z,28.89
2023-05-14T15:59:54.824Z,29.16
2023-05-14T16:02:21.320Z,29.55
2023-05-14T16:04:49.534Z,29.69
2023-05-14T16:07:16.284Z,29.98
2023-05-14T16:09:42.786Z,30.09
2023-05-14T16:12:09.328Z,29.64
2023-05-14T16:14:36.053Z,30.25
2023-05-14T16:17:02.758Z,29.47
2023-05-14T16:19:29.351Z,29.64
2023-05-14T16:21:55.889Z,29.92
2023-05-14T16:24:22.381Z,29.64
2023-05-14T16:26:49.049Z,29.70
2023-05-14T16:29:15.829Z,29.79
2023-05-14T16:31:42.336Z,30.60
2023-05-14T16:34:08.980Z,29.99
2023-05-14T16:36:35.673Z,29.83
2023-05-14T16:41:31.682Z,29.75
2023-05-14T16:43:58.130Z,29.54
2023-05-14T16:46:24.687Z,29.58
2023-05-14T16:48:51.270Z,29.10
2023-05-14T16:51:17.720Z,29.83
2023-05-14T16:53:44.308Z,29.47
2023-05-14T16:56:11.061Z,29.85
2023-05-14T16:58:37.656Z,30.28
2023-05-14T17:01:04.195Z,30.46
2023-05-14T17:03:30.757Z,30.94
2023-05-14T17:05:57.255Z,30.98
2023-05-14T17:08:23.762Z,31.10
2023-05-14T17:10:50.295Z,30.77
2023-05-14T17:13:16.775Z,30.99
2023-05-14T17:15:43.325Z,30.90
2023-05-14T17:18:11.893Z,31.13
2023-05-14T17:20:38.569Z,31.33
2023-05-14T17:23:05.052Z,31.69
2023-05-14T17:25:33.190Z,31.84
2023-05-14T17:28:00.136Z,32.39
2023-05-14T17:30:27.181Z,32.28
2023-05-14T17:32:53.794Z,31.94
2023-05-14T17:35:20.378Z,32.01
2023-05-14T17:37:47.161Z,32.42
2023-05-14T17:40:13.841Z,32.04
2023-05-14T17:42:40.292Z,32.66
2023-05-14T17:45:07.511Z,32.20
2023-05-14T17:47:34.242Z,32.71
2023-05-14T17:50:00.875Z,33.21
2023-05-14T17:52:27.361Z,33.29
2023-05-14T17:54:53.912Z,33.27
2023-05-14T17:57:21.188Z,33.52
2023-05-14T17:59:47.724Z,33.70
2023-05-14T18:02:14.302Z,34.04
2023-05-14T18:04:40.855Z,34.34
2023-05-14T18:07:07.590Z,34.14
2023-05-14T18:09:34.335Z,34.28
2023-05-14T18:12:00.962Z,34.55
2023-05-14T18:14:27.427Z,35.07
2023-05-14T18:16:55.874Z,35.09
2023-05-14T18:19:22.627Z,34.70
2023-05-14T18:21:49.391Z,34.96
2023-05-14T18:24:16.198Z,34.85
2023-05-14T18:26:42.792Z,34.87
2023-05-14T18:29:09.281Z,35.37
2023-05-14T18:31:35.836Z,35.59
2023-05-14T18:34:02.374Z,35.57
2023-05-14T18:36:29.041Z,35.51
2023-05-14T18:38:55.495Z,35.57
2023-05-14T18:41:22.018Z,35.94
2023-05-14T18:43:48.528Z,35.95
2023-05-14T18:46:15.081Z,35.92
2023-05-14T18:48:41.681Z,36.58
2023-05-14T18:51:08.222Z,36.40
2023-05-14T18:53:34.800Z,36.39
2023-05-14T18:56:01.336Z,36.34
2023-05-14T18:58:28.225Z,36.52
2023-05-14T19:00:57.730Z,36.77
2023-05-14T19:03:24.585Z,36.53
2023-05-14T19:05:53.130Z,36.49
2023-05-14T19:08:19.689Z,36.43
2023-05-14T19:10:46.745Z,36.60
2023-05-14T19:13:13.287Z,36.44
2023-05-14T19:15:39.747Z,36.81
2023-05-14T19:18:06.461Z,36.96
2023-05-14T19:20:33.027Z,36.49
2023-05-14T19:22:59.563Z,37.23
2023-05-14T19:25:26.179Z,37.19
2023-05-14T19:27:53.700Z,37.38
2023-05-14T19:30:21.266Z,37.57
2023-05-14T19:32:47.828Z,37.69
2023-05-14T19:35:14.561Z,38.00
2023-05-14T19:37:41.229Z,37.79
2023-05-14T19:40:08.531Z,37.91
2023-05-14T19:42:35.091Z,38.33
2023-05-14T19:45:01.658Z,38.58
2023-05-14T19:47:28.818Z,39.47
2023-05-14T19:49:58.734Z,39.22
2023-05-14T19:52:28.480Z,39.73
2023-05-14T19:54:58.140Z,39.72
2023-05-14T19:57:28.117Z,40.00
2023-05-14T19:59:55.659Z,40.19
2023-05-14T20:02:24.988Z,40.21
2023-05-14T20:04:55.729Z,40.05
2023-05-14T20:07:22.590Z,40.99
2023-05-14T20:09:49.116Z,40.86
2023-05-14T20:12:16.737Z,41.43
2023-05-14T20:14:43.511Z,41.65
2023-05-14T20:17:10.135Z,41.77
2023-05-14T20:19:36.774Z,41.47
2023-05-14T20:22:03.336Z,41.21
2023-05-14T20:24:29.854Z,41.51
2023-05-14T20:26:56.769Z,40.99
2023-05-14T20:29:23.233Z,41.26
2023-05-14T20:31:49.708Z,41.39
2023-05-14T20:34:16.183Z,41.37
2023-05-14T20:36:42.630Z,41.35
2023-05-14T20:39:10.847Z,41.38
2023-05-14T20:41:37.850Z,41.43
2023-05-14T20:44:04.530Z,41.76
2023-05-14T20:46:31.098Z,41.77
2023-05-14T20:48:57.661Z,41.32
2023-05-14T20:51:24.439Z,40.86
2023-05-14T20:53:50.903Z,40.77
2023-05-14T20:56:17.502Z,40.81
2023-05-14T20:58:44.207Z,41.13
2023-05-14T21:01:10.707Z,40.85
2023-05-14T21:03:37.335Z,41.08
2023-05-14T21:06:03.945Z,40.68
2023-05-14T21:08:32.854Z,40.67
2023-05-14T21:10:59.412Z,40.90
2023-05-14T21:13:25.925Z,41.03
2023-05-14T21:15:52.553Z,41.19
2023-05-14T21:18:19.047Z,41.04
2023-05-14T21:20:45.543Z,41.44
2023-05-14T21:23:12.690Z,41.25
2023-05-14T21:25:39.212Z,41.19
2023-05-14T21:28:05.806Z,41.45
2023-05-14T21:30:32.292Z,41.23
2023-05-14T21:32:58.791Z,41.59
2023-05-14T21:35:25.635Z,41.47
2023-05-14T21:37:52.432Z,41.96
2023-05-14T21:40:18.957Z,41.77
2023-05-14T21:42:45.522Z,41.81
2023-05-14T21:45:12.006Z,41.83
2023-05-14T21:47:38.839Z,42.32
2023-05-14T21:50:05.963Z,42.28
2023-05-14T21:52:32.483Z,42.38
2023-05-14T21:54:58.948Z,42.70
2023-05-14T21:57:28.179Z,42.37
2023-05-14T21:59:55.163Z,42.25
2023-05-14T22:02:21.674Z,42.13
2023-05-14T22:04:48.248Z,41.95
2023-05-14T22:07:14.751Z,42.28
2023-05-14T22:09:41.469Z,42.79
2023-05-14T22:12:08.070Z,42.37
2023-05-14T22:14:34.537Z,42.59
2023-05-14T22:17:01.036Z,43.01
2023-05-14T22:19:27.914Z,42.78
2023-05-14T22:21:54.478Z,42.75
2023-05-14T22:24:20.998Z,42.75
2023-05-14T22:26:47.523Z,42.73
2023-05-14T22:29:13.978Z,42.26
2023-05-14T22:31:40.522Z,42.54
2023-05-14T22:34:07.098Z,42.48
2023-05-14T22:36:33.598Z,42.58
2023-05-14T22:39:00.070Z,42.61
2023-05-14T22:41:26.757Z,42.51
2023-05-14T22:43:53.218Z,42.07
2023-05-14T22:46:21.089Z,40.65
2023-05-14T22:48:49.170Z,40.30
2023-05-14T22:51:16.338Z,40.46
2023-05-14T22:53:42.764Z,40.70
2023-05-14T22:56:09.275Z,40.34
2023-05-14T22:58:35.892Z,40.35
2023-05-14T23:01:03.444Z,40.42
2023-05-14T23:03:30.104Z,39.97
2023-05-14T23:05:56.594Z,40.23
2023-05-14T23:08:23.057Z,41.17
2023-05-14T23:10:49.578Z,40.83
2023-05-14T23:13:16.052Z,40.52
2023-05-14T23:15:43.891Z,41.07
2023-05-14T23:18:10.545Z,41.21
2023-05-14T23:20:37.091Z,41.31
2023-05-14T23:23:03.558Z,41.18
2023-05-14T23:25:30.002Z,41.05
2023-05-14T23:27:56.464Z,40.01
2023-05-14T23:30:22.914Z,40.18
2023-05-14T23:32:49.416Z,40.41
2023-05-14T23:35:16.149Z,40.24
2023-05-14T23:37:47.159Z,40.06
2023-05-14T23:40:14.171Z,40.50
2023-05-14T23:42:40.655Z,40.18
2023-05-14T23:45:07.695Z,40.50
2023-05-14T23:47:34.212Z,40.47
2023-05-14T23:50:00.717Z,40.76
2023-05-14T23:52:27.211Z,40.39
2023-05-14T23:54:53.766Z,40.34
2023-05-14T23:57:20.242Z,40.41
2023-05-14T23:59:46.717Z,40.75
